Washington, DC (20554)

5:33 AM EDT on July 30, 2016 (GMT -0400)
Adams Morgan | | Change Station

Elev 171 ft 38.92 °N, 77.04 °W | Updated 12 seconds ago

Mostly Cloudy
Mostly Cloudy
79.0 °F
Feels Like 83 °F
N
0.0
Wind Variable Wind from North
Gusts 0.0 mph

Today
High -- | Low -- °F
--% Chance of Precip.
Yesterday
High -- | Low -- °F
Precip. -- in
Pressure 29.94 in
Visibility 10.0 miles
Clouds Scattered Clouds 17000 ft
Mostly Cloudy 25000 ft
Heat Index 83 °F
Dew Point 74 °F
Humidity 86%
Rainfall 0.00 in
Snow Depth Not available.
6:07 AM 8:20 PM
Waning Crescent, 14% visible
METAR KDCA 300852Z 00000KT 10SM SCT170 BKN250 26/23 A2993 RMK AO2 SLP136 T02560233 55004
Pressure 29.94 in
Visibility 10.0 miles
Clouds Scattered Clouds 17000 ft
Mostly Cloudy 25000 ft
Heat Index 83 °F
Dew Point 74 °F
Humidity 86%
Rainfall 0.00 in
Snow Depth Not available.
6:07 AM 8:20 PM
Waning Crescent, 14% visible
METAR KDCA 300852Z 00000KT 10SM SCT170 BKN250 26/23 A2993 RMK AO2 SLP136 T02560233 55004

10-Day Weather Forecast

Almanac

Astronomy

Jul. 30, 2016 Rise Set
Actual Time
Civil Twilight
Nautical Twilight
Astronomical Twilight
Moon
Length of Visible Light
Length of Day
Tomorrow will be .
, % of the Moon is Illuminated

Today's Extremes

State Highs State Lows

Community

WunderPhotos

Upload Photos

1,928,528 photos uploaded!

WunderBlog® & News

Nearby

Air Quality

  Air Quality AQ Index Pollutant
Not available.

Snow Depth

Station Depth Elevation

Earthquake Activity

City Distance Mag. Time & Date
Minimum magnitude displayed is 2.5.

Coastal Water Temperatures

Place Temperature

Stations

Nearby Weather Stations

Station Location Temp. Windchill Dew Point Humidity Wind Precip. Elev Updated Type
                   

Watches & Warnings

There are currently no watches in effect.